createdAt,value
2022-12-04T00:03:07.813Z,50.66
2022-12-04T00:08:10.849Z,50.36
2022-12-04T00:13:14.638Z,50.94
2022-12-04T00:18:17.529Z,50.77
2022-12-04T00:23:20.487Z,51.17
2022-12-04T00:28:23.408Z,50.65
2022-12-04T00:33:26.815Z,51.26
2022-12-04T00:38:29.842Z,50.70
2022-12-04T00:43:32.810Z,51.52
2022-12-04T00:48:36.245Z,50.33
2022-12-04T00:53:40.162Z,51.27
2022-12-04T00:58:43.535Z,51.47
2022-12-04T01:03:47.198Z,51.57
2022-12-04T01:08:52.427Z,51.35
2022-12-04T01:13:56.677Z,52.50
2022-12-04T01:18:59.862Z,51.80
2022-12-04T01:24:02.939Z,51.89
2022-12-04T01:29:06.185Z,52.26
2022-12-04T01:34:09.161Z,52.13
2022-12-04T01:39:12.626Z,51.96
2022-12-04T01:44:24.408Z,52.20
2022-12-04T01:49:34.424Z,51.55
2022-12-04T01:54:42.274Z,51.98
2022-12-04T01:59:50.936Z,52.02
2022-12-04T02:04:54.620Z,52.67
2022-12-04T02:10:03.936Z,52.14
2022-12-04T02:15:24.792Z,51.55
2022-12-04T02:20:39.576Z,51.64
2022-12-04T02:26:23.501Z,51.41
2022-12-04T02:31:44.427Z,51.40
2022-12-04T02:37:13.222Z,51.51
2022-12-04T02:42:28.291Z,51.14
2022-12-04T02:47:33.958Z,51.08
2022-12-04T02:53:06.326Z,51.55
2022-12-04T02:58:27.160Z,51.67
2022-12-04T03:03:33.787Z,51.32
2022-12-04T03:08:51.668Z,52.33
2022-12-04T03:14:01.639Z,52.64
2022-12-04T03:19:11.072Z,52.75
2022-12-04T03:24:36.881Z,52.90
2022-12-04T03:29:52.913Z,52.41
2022-12-04T03:35:02.795Z,52.75
2022-12-04T03:40:25.887Z,52.40
2022-12-04T03:45:31.483Z,53.09
2022-12-04T03:50:43.056Z,52.93
2022-12-04T03:56:06.782Z,52.95
2022-12-04T04:01:14.078Z,53.52
2022-12-04T04:06:23.658Z,52.85
2022-12-04T04:11:33.375Z,52.72
2022-12-04T04:16:57.708Z,52.64
2022-12-04T04:22:23.450Z,52.21
2022-12-04T04:27:26.540Z,53.18
2022-12-04T04:32:51.641Z,53.45
2022-12-04T04:38:19.129Z,53.77
2022-12-04T04:43:56.815Z,53.60
2022-12-04T04:49:04.047Z,52.96
2022-12-04T04:54:10.735Z,52.72
2022-12-04T04:59:15.432Z,53.03
2022-12-04T05:04:18.392Z,52.63
2022-12-04T05:09:21.394Z,52.47
2022-12-04T05:14:24.365Z,52.23
2022-12-04T05:19:45.773Z,51.64
2022-12-04T05:24:48.903Z,51.62
2022-12-04T05:29:56.514Z,50.92
2022-12-04T05:34:59.766Z,51.90
2022-12-04T05:40:02.810Z,51.41
2022-12-04T05:45:06.294Z,50.99
2022-12-04T05:50:11.331Z,50.24
2022-12-04T05:55:14.483Z,50.02
2022-12-04T06:00:18.415Z,49.70
2022-12-04T06:05:21.587Z,48.58
2022-12-04T06:10:27.009Z,48.18
2022-12-04T06:15:29.899Z,47.92
2022-12-04T06:20:33.785Z,46.73
2022-12-04T06:25:36.988Z,45.12
2022-12-04T06:30:39.907Z,44.10
2022-12-04T06:35:42.826Z,43.32
2022-12-04T06:40:45.736Z,42.97
2022-12-04T06:45:48.970Z,41.44
2022-12-04T06:50:59.763Z,40.42
2022-12-04T06:56:07.938Z,38.55
2022-12-04T07:01:13.514Z,31.26
2022-12-04T07:06:28.995Z,26.65
2022-12-04T07:11:32.848Z,23.73
2022-12-04T07:16:40.685Z,21.76
2022-12-04T07:21:44.435Z,20.66
2022-12-04T07:26:47.718Z,19.41
2022-12-04T07:31:50.738Z,17.98
2022-12-04T07:36:53.760Z,17.68
2022-12-04T07:41:56.658Z,16.87
2022-12-04T07:46:59.943Z,16.35
2022-12-04T07:52:02.931Z,14.48
2022-12-04T07:57:05.985Z,15.80
2022-12-04T08:02:09.232Z,14.83
2022-12-04T08:07:12.189Z,14.02
2022-12-04T08:12:15.138Z,13.67
2022-12-04T08:17:18.194Z,12.55
2022-12-04T08:22:25.052Z,12.30
2022-12-04T08:27:28.486Z,12.00
2022-12-04T08:32:31.388Z,11.56
2022-12-04T08:37:34.427Z,10.65
2022-12-04T08:42:37.356Z,10.38
2022-12-04T08:47:40.382Z,11.10
2022-12-04T08:52:43.472Z,9.75
2022-12-04T08:57:46.655Z,9.39
2022-12-04T09:02:50.992Z,9.76
2022-12-04T09:07:54.096Z,9.00
2022-12-04T09:12:57.052Z,9.11
2022-12-04T09:18:00.034Z,9.06
2022-12-04T09:23:05.245Z,9.84
2022-12-04T09:28:08.610Z,11.22
2022-12-04T09:33:11.823Z,11.91
2022-12-04T09:38:14.811Z,12.11
2022-12-04T09:43:31.637Z,12.16
2022-12-04T09:48:40.532Z,11.76
2022-12-04T09:53:53.853Z,10.24
2022-12-04T09:59:04.080Z,10.45
2022-12-04T10:04:09.404Z,11.17
2022-12-04T10:09:33.819Z,13.16
2022-12-04T10:15:05.033Z,12.94
2022-12-04T10:20:20.149Z,13.31
2022-12-04T10:25:25.635Z,12.25
2022-12-04T10:30:35.965Z,13.54
2022-12-04T10:35:44.195Z,14.58
2022-12-04T10:40:52.237Z,12.20
2022-12-04T10:45:55.698Z,10.39
2022-12-04T10:50:58.980Z,10.79
2022-12-04T10:56:35.191Z,9.94
2022-12-04T11:01:38.447Z,9.62
2022-12-04T11:06:41.708Z,10.05
2022-12-04T11:11:44.931Z,10.10
2022-12-04T11:16:59.838Z,9.23
2022-12-04T11:22:18.102Z,9.60
2022-12-04T11:27:34.521Z,10.37
2022-12-04T11:32:39.013Z,11.75
2022-12-04T11:37:45.452Z,11.06
2022-12-04T11:43:05.010Z,11.03
2022-12-04T11:48:17.257Z,11.99
2022-12-04T11:53:32.444Z,12.26
2022-12-04T11:58:45.284Z,12.88
2022-12-04T12:03:51.784Z,14.28
2022-12-04T12:09:18.583Z,15.76
2022-12-04T12:14:24.226Z,16.53
2022-12-04T12:19:40.550Z,17.12
2022-12-04T12:25:11.732Z,19.48
2022-12-04T12:30:21.825Z,19.88
2022-12-04T12:35:33.348Z,22.13
2022-12-04T12:40:51.178Z,23.56
2022-12-04T12:46:02.510Z,25.39
2022-12-04T12:51:33.255Z,24.41
2022-12-04T12:56:49.220Z,25.90
2022-12-04T13:02:00.857Z,28.02
2022-12-04T13:07:21.230Z,30.06
2022-12-04T13:12:25.194Z,30.67
2022-12-04T13:17:36.620Z,32.12
2022-12-04T13:23:00.704Z,33.45
2022-12-04T13:28:36.558Z,33.16
2022-12-04T13:34:01.165Z,34.04
2022-12-04T13:39:34.325Z,34.42
2022-12-04T13:44:37.603Z,34.17
2022-12-04T13:49:46.413Z,35.36
2022-12-04T13:55:00.346Z,35.79
2022-12-04T14:00:24.804Z,35.67
2022-12-04T14:05:40.442Z,36.90
2022-12-04T14:10:44.747Z,36.76
2022-12-04T14:15:48.428Z,36.78
2022-12-04T14:21:00.761Z,37.28
2022-12-04T14:26:05.635Z,36.75
2022-12-04T14:31:08.845Z,37.52
2022-12-04T14:36:25.520Z,37.16
2022-12-04T14:41:28.752Z,37.81
2022-12-04T14:46:46.292Z,37.62
2022-12-04T14:51:55.307Z,37.49
2022-12-04T14:57:32.912Z,38.18
2022-12-04T15:02:41.750Z,38.29
2022-12-04T15:07:54.369Z,38.93
2022-12-04T15:12:57.862Z,39.59
2022-12-04T15:18:10.256Z,39.91
2022-12-04T15:23:19.529Z,40.38
2022-12-04T15:28:49.306Z,40.01
2022-12-04T15:33:58.953Z,40.08
2022-12-04T15:39:02.865Z,40.71
2022-12-04T15:44:30.453Z,40.48
2022-12-04T15:49:33.936Z,41.02
2022-12-04T15:54:38.060Z,40.39
2022-12-04T15:59:41.273Z,41.60
2022-12-04T16:04:45.654Z,41.32
2022-12-04T16:10:01.070Z,41.17
2022-12-04T16:15:06.929Z,41.76
2022-12-04T16:20:11.889Z,41.75
2022-12-04T16:25:15.436Z,41.93
2022-12-04T16:30:18.616Z,42.16
2022-12-04T16:35:21.898Z,42.28
2022-12-04T16:40:25.039Z,42.66
2022-12-04T16:45:32.243Z,42.41
2022-12-04T16:50:35.509Z,42.44
2022-12-04T16:55:40.052Z,42.87
2022-12-04T17:00:45.228Z,42.91
2022-12-04T17:05:48.496Z,43.42
2022-12-04T17:10:52.410Z,43.27
2022-12-04T17:15:55.889Z,43.46
2022-12-04T17:20:59.207Z,43.37
2022-12-04T17:26:07.883Z,43.79
2022-12-04T17:31:29.439Z,44.16
2022-12-04T17:36:32.573Z,43.34
2022-12-04T17:41:35.733Z,43.46
2022-12-04T17:46:39.153Z,43.33
2022-12-04T17:51:42.283Z,43.72
2022-12-04T17:56:49.586Z,43.80
2022-12-04T18:01:55.444Z,43.91
2022-12-04T18:06:58.739Z,43.47
2022-12-04T18:12:02.130Z,43.84
2022-12-04T18:17:05.529Z,44.41
2022-12-04T18:22:08.773Z,44.90
2022-12-04T18:27:11.857Z,44.20
2022-12-04T18:32:14.985Z,44.49
2022-12-04T18:37:18.773Z,45.33
2022-12-04T18:42:21.904Z,45.51
2022-12-04T18:47:27.015Z,45.19
2022-12-04T18:52:30.185Z,45.92
2022-12-04T18:57:33.970Z,45.88
2022-12-04T19:02:37.116Z,46.26
2022-12-04T19:07:40.360Z,45.52
2022-12-04T19:12:43.465Z,44.83
2022-12-04T19:17:46.804Z,45.77
2022-12-04T19:22:49.979Z,45.89
2022-12-04T19:27:53.076Z,45.29
2022-12-04T19:32:56.192Z,46.09
2022-12-04T19:37:59.344Z,45.75
2022-12-04T19:43:03.191Z,46.27
2022-12-04T19:48:06.628Z,46.13
2022-12-04T19:53:09.845Z,46.48
2022-12-04T19:58:13.118Z,46.55
2022-12-04T20:03:16.271Z,46.55
2022-12-04T20:08:19.450Z,47.13
2022-12-04T20:13:22.485Z,46.86
2022-12-04T20:18:25.770Z,47.23
2022-12-04T20:23:29.630Z,47.98
2022-12-04T20:28:32.729Z,47.20
2022-12-04T20:33:35.879Z,48.09
2022-12-04T20:38:40.386Z,47.35
2022-12-04T20:43:44.279Z,47.89
2022-12-04T20:48:49.555Z,47.82
2022-12-04T20:53:53.944Z,47.88
2022-12-04T20:58:58.847Z,47.30
2022-12-04T21:04:02.938Z,47.80
2022-12-04T21:09:08.975Z,48.63
2022-12-04T21:14:37.665Z,47.96
2022-12-04T21:19:40.920Z,47.69
2022-12-04T21:24:44.159Z,48.18
2022-12-04T21:29:47.226Z,48.35
2022-12-04T21:34:52.124Z,47.58
2022-12-04T21:39:55.706Z,47.70
2022-12-04T21:45:04.401Z,48.05
2022-12-04T21:50:08.126Z,48.54
2022-12-04T21:55:11.340Z,48.01
2022-12-04T22:00:15.156Z,48.40
2022-12-04T22:05:18.257Z,47.73
2022-12-04T22:10:21.393Z,48.61
2022-12-04T22:15:24.475Z,47.72
2022-12-04T22:20:27.918Z,48.33
2022-12-04T22:25:31.550Z,48.81
2022-12-04T22:30:34.887Z,48.90
2022-12-04T22:35:38.311Z,48.91
2022-12-04T22:40:41.487Z,48.28
2022-12-04T22:45:44.686Z,47.91
2022-12-04T22:50:56.939Z,48.46
2022-12-04T22:56:28.003Z,47.98
2022-12-04T23:01:34.691Z,48.60
2022-12-04T23:06:38.105Z,48.73
2022-12-04T23:11:41.793Z,48.74
2022-12-04T23:16:45.010Z,48.48
2022-12-04T23:21:56.438Z,48.90
2022-12-04T23:27:00.248Z,48.39
2022-12-04T23:32:03.369Z,48.43
2022-12-04T23:37:07.684Z,48.01
2022-12-04T23:42:10.795Z,48.29
2022-12-04T23:47:13.953Z,48.17
2022-12-04T23:52:17.076Z,49.17
2022-12-04T23:57:20.282Z,49.58
